Time;durP1;ratioP1;P1;durP2;ratioP2;P2;SDS_P1;SDS_P2;PMS_P1;PMS_P2;Temp;Humidity;BMP_temperature;BMP_pressure;BME280_temperature;BME280_humidity;BME280_pressure;Samples;Min_cycle;Max_cycle;Signal;HPM_P1;HPM_P2
2023/09/09 00:00:11;;;;;;;21.23;16.17;;;;;;;;;;5000792;28;20137;-50
2023/09/09 00:02:39;;;;;;;13.25;11.90;;;;;;;;;;5001806;28;20085;-49
2023/09/09 00:05:13;;;;;;;20.98;14.70;;;;;;;;;;4984450;28;20054;-50
2023/09/09 00:07:40;;;;;;;20.98;15.45;;;;;;;;;;5002317;28;20061;-53
2023/09/09 00:10:14;;;;;;;14.20;12.10;;;;;;;;;;5003890;28;20054;-49
2023/09/09 00:12:41;;;;;;;14.25;8.55;;;;;;;;;;4999838;28;20173;-51
2023/09/09 00:15:15;;;;;;;14.57;11.02;;;;;;;;;;5001657;28;20081;-57
2023/09/09 00:17:42;;;;;;;14.48;10.70;;;;;;;;;;5002501;28;20065;-49
2023/09/09 00:20:38;;;;;;;14.52;11.02;;;;;;;;;;5004073;28;20076;-59
2023/09/09 00:23:30;;;;;;;11.25;9.98;;;;;;;;;;5000963;28;20050;-60
2023/09/09 00:26:17;;;;;;;16.08;12.57;;;;;;;;;;5003209;28;20061;-60
2023/09/09 00:29:11;;;;;;;15.75;12.38;;;;;;;;;;5000503;28;20049;-60
2023/09/09 00:31:58;;;;;;;18.08;13.88;;;;;;;;;;4998409;28;20169;-59
2023/09/09 00:34:52;;;;;;;10.00;9.00;;;;;;;;;;4999707;28;20113;-60
2023/09/09 00:37:40;;;;;;;12.88;10.70;;;;;;;;;;5001553;28;20082;-59
2023/09/09 00:40:33;;;;;;;18.25;11.63;;;;;;;;;;5002230;28;20141;-59
2023/09/09 00:43:20;;;;;;;10.80;9.13;;;;;;;;;;5001171;28;20050;-58
2023/09/09 00:46:27;;;;;;;10.85;9.38;;;;;;;;;;5000665;28;20081;-66
2023/09/09 00:49:21;;;;;;;15.93;13.07;;;;;;;;;;5001384;28;20057;-50
2023/09/09 00:52:15;;;;;;;12.40;11.10;;;;;;;;;;5000612;28;20106;-47
2023/09/09 00:55:02;;;;;;;12.15;10.60;;;;;;;;;;4990829;28;20184;-50
2023/09/09 00:57:56;;;;;;;13.82;10.40;;;;;;;;;;5002680;28;20068;-54
2023/09/09 01:00:43;;;;;;;11.50;10.40;;;;;;;;;;4999806;28;20144;-46
2023/09/09 01:03:37;;;;;;;9.25;8.35;;;;;;;;;;5006721;28;20053;-58
2023/09/09 01:06:24;;;;;;;12.52;9.20;;;;;;;;;;5006667;28;20062;-60
2023/09/09 01:09:18;;;;;;;4.05;3.47;;;;;;;;;;5002550;28;20057;-61
2023/09/09 01:12:11;;;;;;;4.93;4.45;;;;;;;;;;5005580;28;20057;-60
2023/09/09 01:15:00;;;;;;;6.00;5.40;;;;;;;;;;5008326;28;20056;-60
2023/09/09 01:17:48;;;;;;;10.02;7.95;;;;;;;;;;5004444;28;20050;-60
2023/09/09 01:20:44;;;;;;;9.25;7.78;;;;;;;;;;5001709;28;20089;-67
2023/09/09 01:23:31;;;;;;;8.60;7.38;;;;;;;;;;5004415;28;20058;-47
2023/09/09 01:26:25;;;;;;;8.68;7.85;;;;;;;;;;5001415;28;20148;-51
2023/09/09 01:29:13;;;;;;;8.60;7.72;;;;;;;;;;5003175;28;20140;-48
2023/09/09 01:32:07;;;;;;;9.60;7.72;;;;;;;;;;5002758;28;20136;-48
2023/09/09 01:35:06;;;;;;;9.00;8.10;;;;;;;;;;5002847;28;20102;-51
2023/09/09 01:37:55;;;;;;;7.60;6.88;;;;;;;;;;5004683;28;20604;-50
2023/09/09 01:40:49;;;;;;;7.82;6.10;;;;;;;;;;5008176;28;20053;-57
2023/09/09 01:43:37;;;;;;;9.20;8.25;;;;;;;;;;5003389;28;20109;-58
2023/09/09 01:46:44;;;;;;;7.93;7.22;;;;;;;;;;5003445;28;20064;-58
2023/09/09 01:49:38;;;;;;;11.15;9.50;;;;;;;;;;5003168;28;21430;-67
2023/09/09 01:52:32;;;;;;;13.82;9.68;;;;;;;;;;4996505;28;20050;-62
2023/09/09 01:55:19;;;;;;;11.13;9.98;;;;;;;;;;5002465;28;20061;-62
2023/09/09 01:58:15;;;;;;;13.27;11.15;;;;;;;;;;5005082;28;20053;-62
2023/09/09 02:01:00;;;;;;;11.23;10.23;;;;;;;;;;5000348;28;20045;-63
2023/09/09 02:03:54;;;;;;;9.57;8.68;;;;;;;;;;5000966;28;20135;-63
2023/09/09 02:06:43;;;;;;;10.32;9.15;;;;;;;;;;5002964;28;20623;-67
2023/09/09 02:09:35;;;;;;;8.95;7.25;;;;;;;;;;5004325;28;20298;-59
2023/09/09 02:12:22;;;;;;;13.32;8.23;;;;;;;;;;5002921;28;20761;-59
2023/09/09 02:15:17;;;;;;;9.75;8.40;;;;;;;;;;5001765;28;20065;-58
2023/09/09 02:18:04;;;;;;;11.95;7.75;;;;;;;;;;5001781;28;20054;-59
2023/09/09 02:20:58;;;;;;;9.95;8.45;;;;;;;;;;5005516;28;20054;-58
2023/09/09 02:23:45;;;;;;;10.63;8.80;;;;;;;;;;5003130;28;20815;-58
2023/09/09 02:26:39;;;;;;;13.70;10.52;;;;;;;;;;4998236;28;20144;-54
2023/09/09 02:29:27;;;;;;;18.33;14.43;;;;;;;;;;5002510;28;20194;-51
2023/09/09 02:32:20;;;;;;;12.73;11.02;;;;;;;;;;5002670;28;20061;-48
2023/09/09 02:35:14;;;;;;;13.20;11.80;;;;;;;;;;5002794;28;20116;-59
2023/09/09 02:38:07;;;;;;;;;;;;;;;;;;5002622;28;20064;-60
2023/09/09 02:40:54;;;;;;;16.15;10.80;;;;;;;;;;5003101;28;19933;-58
2023/09/09 02:43:48;;;;;;;15.80;13.30;;;;;;;;;;5004597;28;20057;-58
2023/09/09 02:46:42;;;;;;;13.57;12.15;;;;;;;;;;5001886;28;20223;-58
2023/09/09 02:49:45;;;;;;;15.65;13.55;;;;;;;;;;4999769;28;20050;-59
2023/09/09 02:52:36;;;;;;;15.73;11.68;;;;;;;;;;5003432;28;20058;-59
2023/09/09 02:55:23;;;;;;;16.75;12.38;;;;;;;;;;5001226;28;21340;-51
2023/09/09 02:58:17;;;;;;;14.20;12.52;;;;;;;;;;5003391;28;20112;-58
2023/09/09 03:01:05;;;;;;;16.75;12.85;;;;;;;;;;5004172;28;20075;-58
2023/09/09 03:03:59;;;;;;;12.90;11.20;;;;;;;;;;4998536;28;20059;-59
2023/09/09 03:06:46;;;;;;;12.20;10.77;;;;;;;;;;5000289;28;20064;-58
2023/09/09 03:09:40;;;;;;;13.13;8.50;;;;;;;;;;5002442;28;20897;-58
2023/09/09 03:12:28;;;;;;;9.80;8.80;;;;;;;;;;4998575;28;20049;-67
2023/09/09 03:15:22;;;;;;;7.68;6.88;;;;;;;;;;5003771;28;20528;-67
2023/09/09 03:18:09;;;;;;;7.68;6.90;;;;;;;;;;5004027;28;20089;-67
2023/09/09 03:21:02;;;;;;;8.75;7.88;;;;;;;;;;5000950;28;20038;-67
2023/09/09 03:23:49;;;;;;;7.95;7.15;;;;;;;;;;5001761;28;20144;-60
2023/09/09 03:26:43;;;;;;;9.60;7.55;;;;;;;;;;5001852;28;20082;-60
2023/09/09 03:29:37;;;;;;;7.05;6.35;;;;;;;;;;5001520;28;20075;-61
2023/09/09 03:32:31;;;;;;;12.57;9.00;;;;;;;;;;4998364;28;20524;-60
2023/09/09 03:35:19;;;;;;;17.33;12.23;;;;;;;;;;4999881;28;20085;-61
2023/09/09 03:38:12;;;;;;;17.10;12.43;;;;;;;;;;5002161;28;20103;-61
2023/09/09 03:40:59;;;;;;;19.42;12.68;;;;;;;;;;5003901;28;20827;-48
2023/09/09 03:43:53;;;;;;;15.68;12.00;;;;;;;;;;5001106;28;20161;-50
2023/09/09 03:46:47;;;;;;;13.40;11.10;;;;;;;;;;4997080;28;20141;-50
2023/09/09 03:49:40;;;;;;;25.23;11.38;;;;;;;;;;4977701;28;20056;-52
2023/09/09 03:52:29;;;;;;;16.58;11.70;;;;;;;;;;4983115;28;20054;-62
2023/09/09 03:55:22;;;;;;;17.20;13.20;;;;;;;;;;4979866;28;20485;-52
2023/09/09 03:58:10;;;;;;;12.55;11.25;;;;;;;;;;4981075;28;20473;-52
2023/09/09 04:01:07;;;;;;;13.70;12.30;;;;;;;;;;4979227;28;20065;-49
2023/09/09 04:03:54;;;;;;;16.55;10.88;;;;;;;;;;4979364;28;20061;-51
2023/09/09 04:06:48;;;;;;;14.38;11.73;;;;;;;;;;4978569;28;20060;-52
2023/09/09 04:09:40;;;;;;;12.05;10.60;;;;;;;;;;4980917;28;20078;-60
2023/09/09 04:12:29;;;;;;;13.73;10.18;;;;;;;;;;4983237;28;20525;-67
2023/09/09 04:15:16;;;;;;;19.55;11.48;;;;;;;;;;4982931;28;20046;-66
2023/09/09 04:18:12;;;;;;;13.75;9.52;;;;;;;;;;4983942;28;20058;-67
2023/09/09 04:21:13;;;;;;;10.65;7.72;;;;;;;;;;4977681;28;20521;-66
2023/09/09 04:24:07;;;;;;;11.30;8.80;;;;;;;;;;4981987;28;20105;-67
2023/09/09 04:26:54;;;;;;;9.82;8.80;;;;;;;;;;4978335;28;20061;-67
2023/09/09 04:29:49;;;;;;;11.75;10.55;;;;;;;;;;4981096;28;20091;-67
2023/09/09 04:32:36;;;;;;;12.93;9.90;;;;;;;;;;4980781;28;20494;-59
2023/09/09 04:35:30;;;;;;;8.40;7.60;;;;;;;;;;4980718;28;20057;-59
2023/09/09 04:38:24;;;;;;;8.85;7.95;;;;;;;;;;4984526;28;20046;-60
2023/09/09 04:41:11;;;;;;;13.07;10.02;;;;;;;;;;4981900;28;20406;-60
2023/09/09 04:44:05;;;;;;;12.85;9.20;;;;;;;;;;4984568;28;20128;-60
2023/09/09 04:47:06;;;;;;;11.98;9.48;;;;;;;;;;4989060;28;20111;-58
2023/09/09 04:49:56;;;;;;;8.27;7.47;;;;;;;;;;5003334;28;20065;-59
2023/09/09 04:52:47;;;;;;;10.15;8.73;;;;;;;;;;5004951;28;20058;-59
2023/09/09 04:55:34;;;;;;;7.97;7.18;;;;;;;;;;5002736;28;20054;-67
2023/09/09 04:58:30;;;;;;;10.15;9.15;;;;;;;;;;5002220;28;20046;-49
2023/09/09 05:01:17;;;;;;;11.02;9.77;;;;;;;;;;4999731;28;20060;-62
2023/09/09 05:04:11;;;;;;;11.13;9.93;;;;;;;;;;4999476;28;20632;-63
2023/09/09 05:06:58;;;;;;;16.75;8.48;;;;;;;;;;4995617;28;20058;-62
2023/09/09 05:09:52;;;;;;;13.18;7.47;;;;;;;;;;5000803;28;20046;-62
2023/09/09 05:12:39;;;;;;;14.48;9.35;;;;;;;;;;4998765;28;20057;-62
2023/09/09 05:15:33;;;;;;;15.32;11.60;;;;;;;;;;5003890;28;20084;-56
2023/09/09 05:18:20;;;;;;;10.23;9.10;;;;;;;;;;5003632;28;20046;-58
2023/09/09 05:21:14;;;;;;;11.50;9.95;;;;;;;;;;5000991;28;20912;-59
2023/09/09 05:24:02;;;;;;;10.23;5.55;;;;;;;;;;5001328;28;20066;-66
2023/09/09 05:26:55;;;;;;;9.88;7.38;;;;;;;;;;5001020;28;20050;-52
2023/09/09 05:29:49;;;;;;;7.65;5.68;;;;;;;;;;4999896;28;20046;-60
2023/09/09 05:32:36;;;;;;;7.05;6.25;;;;;;;;;;5001967;28;20109;-60
2023/09/09 05:35:30;;;;;;;9.32;6.75;;;;;;;;;;5001426;28;20144;-60
2023/09/09 05:38:17;;;;;;;9.15;8.23;;;;;;;;;;4999497;28;20080;-59
2023/09/09 05:41:11;;;;;;;9.90;8.88;;;;;;;;;;5005490;28;20155;-60
2023/09/09 05:43:58;;;;;;;9.10;7.57;;;;;;;;;;5002644;28;20049;-60
2023/09/09 05:46:59;;;;;;;7.80;7.07;;;;;;;;;;5003782;28;20069;-60
2023/09/09 05:49:46;;;;;;;9.40;6.20;;;;;;;;;;5000236;28;20414;-60
2023/09/09 05:52:40;;;;;;;8.30;6.93;;;;;;;;;;5000964;28;20054;-60
2023/09/09 05:55:30;;;;;;;10.00;8.77;;;;;;;;;;5001899;28;20046;-63
2023/09/09 05:58:23;;;;;;;11.07;8.80;;;;;;;;;;5000951;28;20057;-60
2023/09/09 06:01:10;;;;;;;6.97;6.28;;;;;;;;;;4995305;28;20046;-60
2023/09/09 06:04:04;;;;;;;5.53;5.03;;;;;;;;;;5000839;28;20061;-60
2023/09/09 06:06:51;;;;;;;5.22;4.72;;;;;;;;;;5001524;28;20919;-60
2023/09/09 06:09:45;;;;;;;5.40;4.90;;;;;;;;;;5002114;28;20078;-61
2023/09/09 06:12:12;;;;;;;6.85;6.07;;;;;;;;;;5003455;28;20368;-60
2023/09/09 06:15:07;;;;;;;10.82;6.93;;;;;;;;;;5000482;28;20057;-59
2023/09/09 06:17:55;;;;;;;9.52;6.35;;;;;;;;;;5002736;28;20518;-60
2023/09/09 06:20:48;;;;;;;7.40;6.70;;;;;;;;;;5003001;28;20482;-60
2023/09/09 06:23:35;;;;;;;8.40;5.93;;;;;;;;;;5000068;28;20224;-60
2023/09/09 06:26:33;;;;;;;7.13;6.32;;;;;;;;;;5002549;28;20116;-59
2023/09/09 06:29:16;;;;;;;9.90;5.95;;;;;;;;;;5003134;28;20050;-58
2023/09/09 06:32:10;;;;;;;7.47;6.50;;;;;;;;;;5004210;28;20057;-47
2023/09/09 06:35:05;;;;;;;10.57;6.57;;;;;;;;;;5000985;28;20109;-60
2023/09/09 06:37:39;;;;;;;8.25;6.50;;;;;;;;;;4997480;28;20616;-60
2023/09/09 06:40:13;;;;;;;9.07;5.65;;;;;;;;;;4999003;28;20057;-59
2023/09/09 06:43:07;;;;;;;11.18;7.13;;;;;;;;;;5003435;28;20046;-60
2023/09/09 06:45:55;;;;;;;11.40;9.60;;;;;;;;;;4999874;28;20502;-60
2023/09/09 06:48:55;;;;;;;13.57;11.73;;;;;;;;;;5004249;28;20049;-59
2023/09/09 06:51:53;;;;;;;12.60;10.23;;;;;;;;;;5000529;28;20052;-62
2023/09/09 06:54:46;;;;;;;11.75;10.45;;;;;;;;;;4999199;28;20062;-62
2023/09/09 06:57:40;;;;;;;16.80;10.18;;;;;;;;;;5000134;28;20489;-62
2023/09/09 07:00:27;;;;;;;10.80;9.43;;;;;;;;;;4998598;28;20052;-63
2023/09/09 07:03:01;;;;;;;17.05;9.90;;;;;;;;;;4998026;28;20642;-63
2023/09/09 07:05:49;;;;;;;11.23;9.05;;;;;;;;;;4998300;28;20072;-62
2023/09/09 07:08:45;;;;;;;13.65;11.32;;;;;;;;;;4999375;28;20461;-59
2023/09/09 07:11:19;;;;;;;14.02;12.63;;;;;;;;;;4997687;28;20513;-65
2023/09/09 07:14:06;;;;;;;12.45;11.18;;;;;;;;;;4992172;28;20501;-66
2023/09/09 07:16:40;;;;;;;11.65;10.30;;;;;;;;;;4990376;28;20609;-66
2023/09/09 07:19:27;;;;;;;11.60;10.50;;;;;;;;;;4983582;28;20057;-65
2023/09/09 07:22:21;;;;;;;18.50;9.82;;;;;;;;;;4990032;28;20108;-65
2023/09/09 07:25:09;;;;;;;11.95;10.15;;;;;;;;;;4997094;28;20538;-51
2023/09/09 07:28:02;;;;;;;13.50;11.13;;;;;;;;;;4994971;28;20157;-63
2023/09/09 07:30:43;;;;;;;13.52;9.98;;;;;;;;;;5002375;28;20104;-62
2023/09/09 07:33:31;;;;;;;14.82;11.30;;;;;;;;;;4996812;28;20501;-63
2023/09/09 07:36:24;;;;;;;14.27;11.40;;;;;;;;;;4993711;28;20167;-62
2023/09/09 07:39:13;;;;;;;11.73;10.50;;;;;;;;;;4997895;28;20627;-62
2023/09/09 07:42:05;;;;;;;15.30;11.57;;;;;;;;;;5000409;28;20135;-62
2023/09/09 07:44:59;;;;;;;13.23;11.82;;;;;;;;;;4996223;28;20076;-60
2023/09/09 07:47:53;;;;;;;12.65;11.38;;;;;;;;;;4988873;28;20058;-59
2023/09/09 07:50:55;;;;;;;13.10;11.13;;;;;;;;;;4982240;28;20490;-60
2023/09/09 07:53:42;;;;;;;13.98;12.60;;;;;;;;;;4980839;28;20053;-59
2023/09/09 07:56:36;;;;;;;13.68;12.30;;;;;;;;;;4980305;28;20105;-60
2023/09/09 07:59:23;;;;;;;14.70;12.73;;;;;;;;;;4983276;28;20104;-60
2023/09/09 08:02:17;;;;;;;14.85;12.98;;;;;;;;;;4980983;28;20062;-58
2023/09/09 08:05:06;;;;;;;16.48;12.85;;;;;;;;;;4978526;28;20054;-64
2023/09/09 08:07:59;;;;;;;15.65;12.40;;;;;;;;;;4982977;28;20114;-64
2023/09/09 08:10:48;;;;;;;14.63;11.02;;;;;;;;;;4982418;28;20511;-64
2023/09/09 08:13:40;;;;;;;14.88;10.93;;;;;;;;;;4980262;28;20145;-64
2023/09/09 08:16:28;;;;;;;11.95;9.45;;;;;;;;;;4977147;28;20058;-65
2023/09/09 08:19:21;;;;;;;11.25;9.30;;;;;;;;;;4980275;28;20050;-64
2023/09/09 08:22:09;;;;;;;17.08;10.80;;;;;;;;;;4984862;28;20047;-65
2023/09/09 08:25:02;;;;;;;16.20;9.93;;;;;;;;;;4980251;28;20141;-64
2023/09/09 08:27:50;;;;;;;13.90;9.90;;;;;;;;;;4981211;28;20058;-65
2023/09/09 08:30:46;;;;;;;14.35;11.10;;;;;;;;;;4982475;28;20047;-50
2023/09/09 08:33:34;;;;;;;13.68;9.68;;;;;;;;;;4978477;28;20418;-50
2023/09/09 08:36:27;;;;;;;12.15;8.75;;;;;;;;;;4982190;28;20062;-51
2023/09/09 08:39:15;;;;;;;22.67;9.77;;;;;;;;;;4985242;28;20104;-53
2023/09/09 08:42:35;;;;;;;10.98;8.95;;;;;;;;;;4986755;28;20096;-48
2023/09/09 08:45:41;;;;;;;10.95;8.43;;;;;;;;;;4971681;28;20081;-54
2023/09/09 08:48:43;;;;;;;12.82;8.65;;;;;;;;;;4996308;28;20188;-64
2023/09/09 08:51:34;;;;;;;10.13;7.95;;;;;;;;;;5001558;28;20164;-64
2023/09/09 08:54:28;;;;;;;13.27;9.05;;;;;;;;;;5001915;28;20068;-64
2023/09/09 08:57:16;;;;;;;9.35;8.32;;;;;;;;;;4999014;28;20124;-63
2023/09/09 09:00:11;;;;;;;12.88;8.13;;;;;;;;;;5007264;28;20046;-58
2023/09/09 09:02:58;;;;;;;13.52;8.18;;;;;;;;;;4993027;28;20147;-58
2023/09/09 09:05:54;;;;;;;11.50;8.13;;;;;;;;;;4994860;28;20054;-58
2023/09/09 09:08:42;;;;;;;11.73;8.40;;;;;;;;;;5000151;28;20488;-59
2023/09/09 09:11:34;;;;;;;15.35;8.55;;;;;;;;;;5002762;28;20061;-57
2023/09/09 09:14:21;;;;;;;13.55;8.05;;;;;;;;;;4998338;28;20057;-59
2023/09/09 09:17:20;;;;;;;12.82;8.48;;;;;;;;;;5003871;28;21485;-63
2023/09/09 09:20:10;;;;;;;13.18;7.70;;;;;;;;;;5003637;28;20062;-60
2023/09/09 09:23:06;;;;;;;14.75;8.13;;;;;;;;;;5000447;28;20045;-60
2023/09/09 09:26:00;;;;;;;11.25;7.72;;;;;;;;;;5005482;28;20053;-60
2023/09/09 09:28:47;;;;;;;14.30;8.13;;;;;;;;;;5005224;28;20058;-59
2023/09/09 09:31:41;;;;;;;9.05;7.47;;;;;;;;;;5007863;28;20068;-59
2023/09/09 09:34:33;;;;;;;10.52;8.05;;;;;;;;;;5004975;28;20057;-59
2023/09/09 09:37:26;;;;;;;14.32;7.28;;;;;;;;;;4998681;28;20065;-61
2023/09/09 09:40:20;;;;;;;9.85;7.57;;;;;;;;;;4996423;28;20066;-61
2023/09/09 09:43:18;;;;;;;12.27;7.97;;;;;;;;;;5002810;28;20121;-60
2023/09/09 09:46:18;;;;;;;8.02;7.22;;;;;;;;;;5007993;28;20050;-60
2023/09/09 09:49:18;;;;;;;9.80;7.03;;;;;;;;;;5003725;28;20143;-60
2023/09/09 09:52:06;;;;;;;11.80;7.68;;;;;;;;;;5003375;28;20058;-60
2023/09/09 09:55:03;;;;;;;13.85;7.30;;;;;;;;;;5002608;28;20050;-60
2023/09/09 09:57:50;;;;;;;8.90;7.43;;;;;;;;;;5004365;28;21558;-62
2023/09/09 10:00:44;;;;;;;11.88;7.35;;;;;;;;;;5003446;28;20057;-61
2023/09/09 10:03:42;;;;;;;9.40;6.72;;;;;;;;;;5001079;28;20077;-62
2023/09/09 10:06:36;;;;;;;8.05;7.10;;;;;;;;;;4999476;28;20074;-61
2023/09/09 10:09:43;;;;;;;9.20;7.10;;;;;;;;;;5003024;28;20100;-62
2023/09/09 10:12:43;;;;;;;10.23;7.00;;;;;;;;;;5003583;28;20586;-59
2023/09/09 10:15:30;;;;;;;12.15;7.43;;;;;;;;;;5005606;28;20061;-58
2023/09/09 10:18:25;;;;;;;13.38;7.15;;;;;;;;;;5004582;28;20115;-59
2023/09/09 10:21:13;;;;;;;7.53;6.78;;;;;;;;;;5003209;28;20108;-58
2023/09/09 10:24:10;;;;;;;13.38;6.85;;;;;;;;;;5004468;28;20085;-62
2023/09/09 10:26:57;;;;;;;11.85;7.30;;;;;;;;;;5001975;28;20529;-51
2023/09/09 10:29:52;;;;;;;9.75;7.20;;;;;;;;;;5000791;28;20206;-51
2023/09/09 10:32:45;;;;;;;12.02;7.60;;;;;;;;;;4998838;28;20139;-52
2023/09/09 10:35:39;;;;;;;11.13;6.75;;;;;;;;;;4999877;28;20059;-47
2023/09/09 10:38:27;;;;;;;14.65;7.25;;;;;;;;;;5001391;28;20058;-51
2023/09/09 10:41:20;;;;;;;12.38;7.20;;;;;;;;;;4996335;28;20576;-61
2023/09/09 10:44:08;;;;;;;10.68;6.88;;;;;;;;;;5001230;28;20395;-61
2023/09/09 10:47:01;;;;;;;11.07;6.82;;;;;;;;;;5000190;28;20076;-60
2023/09/09 10:50:09;;;;;;;7.50;6.63;;;;;;;;;;4998627;28;20057;-61
2023/09/09 10:53:15;;;;;;;6.75;6.03;;;;;;;;;;5002569;28;20581;-60
2023/09/09 10:56:17;;;;;;;8.70;6.35;;;;;;;;;;5001920;28;20482;-61
2023/09/09 10:59:15;;;;;;;9.02;7.32;;;;;;;;;;5002197;28;20128;-62
2023/09/09 11:02:10;;;;;;;8.55;6.40;;;;;;;;;;4996695;28;20108;-64
2023/09/09 11:04:57;;;;;;;;;;;;;;;;;;5002689;28;20046;-61
2023/09/09 11:07:50;;;;;;;8.75;6.03;;;;;;;;;;5000584;28;19931;-62
2023/09/09 11:10:37;;;;;;;7.25;6.18;;;;;;;;;;5001471;28;20124;-61
2023/09/09 11:13:38;;;;;;;12.90;6.57;;;;;;;;;;5000061;28;20045;-61
2023/09/09 11:16:25;;;;;;;9.25;6.30;;;;;;;;;;5002846;28;20131;-62
2023/09/09 11:19:21;;;;;;;8.20;6.35;;;;;;;;;;5002979;28;20046;-62
2023/09/09 11:22:09;;;;;;;11.10;6.22;;;;;;;;;;4998432;28;20053;-63
2023/09/09 11:25:04;;;;;;;7.30;6.10;;;;;;;;;;5002500;28;20062;-63
2023/09/09 11:27:52;;;;;;;8.98;6.57;;;;;;;;;;4999904;28;21212;-64
2023/09/09 11:30:46;;;;;;;12.57;6.43;;;;;;;;;;5002601;28;20061;-60
2023/09/09 11:33:34;;;;;;;9.32;6.43;;;;;;;;;;5003386;28;20521;-61
2023/09/09 11:36:28;;;;;;;9.38;6.75;;;;;;;;;;5002353;28;20053;-46
2023/09/09 11:39:16;;;;;;;;;;;;;;;;;;5001888;28;20054;-48
2023/09/09 11:42:09;;;;;;;6.93;6.15;;;;;;;;;;5000838;28;19925;-49
2023/09/09 11:44:56;;;;;;;8.98;6.60;;;;;;;;;;4997232;28;20481;-48
2023/09/09 11:47:57;;;;;;;11.18;6.35;;;;;;;;;;4998546;28;20053;-52
2023/09/09 11:50:51;;;;;;;7.28;6.00;;;;;;;;;;5004547;28;20054;-60
2023/09/09 11:53:39;;;;;;;12.85;6.50;;;;;;;;;;5000578;28;20063;-61
2023/09/09 11:56:33;;;;;;;9.32;6.10;;;;;;;;;;4996214;28;20046;-61
2023/09/09 11:59:21;;;;;;;11.40;6.53;;;;;;;;;;4998039;28;20053;-60
2023/09/09 12:02:18;;;;;;;6.97;6.28;;;;;;;;;;4996108;28;20054;-61
2023/09/09 12:05:07;;;;;;;9.88;6.20;;;;;;;;;;4995931;28;20038;-61
2023/09/09 12:07:59;;;;;;;7.40;5.90;;;;;;;;;;4991998;28;20058;-47
2023/09/09 12:10:47;;;;;;;12.73;7.47;;;;;;;;;;4992507;28;20630;-47
2023/09/09 12:13:20;;;;;;;8.88;6.25;;;;;;;;;;4991805;28;20058;-52
2023/09/09 12:15:48;;;;;;;8.82;6.13;;;;;;;;;;4993835;28;20215;-51
2023/09/09 12:18:41;;;;;;;12.38;6.55;;;;;;;;;;4993706;28;20057;-50
2023/09/09 12:21:29;;;;;;;8.00;6.10;;;;;;;;;;4994795;28;20049;-49
2023/09/09 12:24:22;;;;;;;11.35;6.10;;;;;;;;;;4998506;28;20058;-58
2023/09/09 12:27:16;;;;;;;10.05;6.45;;;;;;;;;;4990740;28;20046;-61
2023/09/09 12:30:03;;;;;;;9.13;6.63;;;;;;;;;;4990814;28;20057;-61
2023/09/09 12:33:04;;;;;;;8.27;6.60;;;;;;;;;;4999975;28;20527;-61
2023/09/09 12:35:57;;;;;;;9.48;6.80;;;;;;;;;;5000045;28;20057;-61
2023/09/09 12:38:46;;;;;;;9.23;6.00;;;;;;;;;;5001757;28;20140;-62
2023/09/09 12:41:38;;;;;;;7.55;6.25;;;;;;;;;;4999040;28;20055;-48
2023/09/09 12:44:26;;;;;;;9.82;6.15;;;;;;;;;;5000581;28;20054;-61
2023/09/09 12:47:26;;;;;;;10.48;6.30;;;;;;;;;;4998536;28;20058;-61
2023/09/09 12:50:20;;;;;;;8.00;6.53;;;;;;;;;;4997828;28;20063;-62
2023/09/09 12:53:17;;;;;;;9.48;6.63;;;;;;;;;;4994545;28;20042;-62
2023/09/09 12:56:03;;;;;;;12.20;7.05;;;;;;;;;;4996218;28;20060;-62
2023/09/09 12:58:57;;;;;;;10.32;6.28;;;;;;;;;;4994287;28;20058;-51
2023/09/09 13:01:44;;;;;;;7.82;6.13;;;;;;;;;;4993194;28;20096;-58
2023/09/09 13:04:38;;;;;;;11.52;6.47;;;;;;;;;;4996762;28;20057;-63
2023/09/09 13:07:25;;;;;;;8.63;6.20;;;;;;;;;;5004877;28;20072;-61
2023/09/09 13:10:20;;;;;;;7.63;5.97;;;;;;;;;;5005464;28;20053;-61
2023/09/09 13:13:07;;;;;;;8.40;6.45;;;;;;;;;;5002550;28;20068;-61
2023/09/09 13:16:08;;;;;;;11.20;6.75;;;;;;;;;;5005257;28;20054;-61
2023/09/09 13:18:54;;;;;;;12.15;6.70;;;;;;;;;;5003131;28;20060;-61
2023/09/09 13:21:51;;;;;;;8.07;6.22;;;;;;;;;;5003169;28;20042;-62
2023/09/09 13:24:39;;;;;;;10.50;6.35;;;;;;;;;;5000884;28;20568;-62
2023/09/09 13:27:32;;;;;;;8.85;6.35;;;;;;;;;;5000850;28;20120;-63
2023/09/09 13:30:19;;;;;;;11.40;6.35;;;;;;;;;;5001639;28;20050;-62
2023/09/09 13:33:13;;;;;;;9.43;6.30;;;;;;;;;;4998946;28;20054;-61
2023/09/09 13:36:08;;;;;;;7.95;6.25;;;;;;;;;;4999677;28;20453;-62
2023/09/09 13:39:01;;;;;;;9.48;6.03;;;;;;;;;;4999650;28;20054;-58
2023/09/09 13:41:56;;;;;;;10.68;6.00;;;;;;;;;;5000378;28;20061;-57
2023/09/09 13:44:49;;;;;;;8.18;5.85;;;;;;;;;;5001947;28;20537;-57
2023/09/09 13:47:50;;;;;;;10.57;6.15;;;;;;;;;;5000683;28;20282;-58
2023/09/09 13:50:24;;;;;;;13.13;6.38;;;;;;;;;;5002689;28;20065;-58
2023/09/09 13:52:57;;;;;;;11.13;6.30;;;;;;;;;;4997122;28;20557;-57
2023/09/09 13:55:44;;;;;;;8.13;6.72;;;;;;;;;;5001700;28;20104;-60
2023/09/09 13:58:38;;;;;;;9.63;5.90;;;;;;;;;;5001458;28;20069;-61
2023/09/09 14:01:26;;;;;;;9.90;6.68;;;;;;;;;;4997640;28;20948;-60
2023/09/09 14:04:20;;;;;;;10.68;6.75;;;;;;;;;;4999663;28;20112;-60
2023/09/09 14:07:14;;;;;;;9.38;6.95;;;;;;;;;;5002636;28;20053;-60
2023/09/09 14:10:15;;;;;;;14.48;6.80;;;;;;;;;;5005224;28;20053;-60
2023/09/09 14:12:50;;;;;;;8.60;6.35;;;;;;;;;;5004319;28;20144;-48
2023/09/09 14:15:23;;;;;;;10.43;6.85;;;;;;;;;;5001178;28;20112;-62
2023/09/09 14:18:10;;;;;;;7.95;6.60;;;;;;;;;;5004072;28;20449;-60
2023/09/09 14:21:06;;;;;;;11.77;6.93;;;;;;;;;;5000627;28;20050;-60
2023/09/09 14:23:53;;;;;;;11.02;6.28;;;;;;;;;;5003130;28;20054;-59
2023/09/09 14:26:47;;;;;;;12.95;6.65;;;;;;;;;;5007159;28;20058;-59
2023/09/09 14:29:34;;;;;;;9.80;6.38;;;;;;;;;;5002915;28;20066;-59
2023/09/09 14:32:28;;;;;;;9.77;6.55;;;;;;;;;;5004315;28;20060;-60
2023/09/09 14:35:15;;;;;;;10.82;6.90;;;;;;;;;;5004476;28;20065;-60
2023/09/09 14:38:08;;;;;;;14.85;6.57;;;;;;;;;;5004034;28;20120;-59
2023/09/09 14:40:55;;;;;;;13.98;7.00;;;;;;;;;;5004254;28;20053;-61
2023/09/09 14:43:50;;;;;;;9.82;6.72;;;;;;;;;;5006198;28;20524;-56
2023/09/09 14:46:37;;;;;;;8.85;6.63;;;;;;;;;;5004931;28;20144;-59
2023/09/09 14:49:40;;;;;;;9.70;6.57;;;;;;;;;;5002828;28;20060;-60
2023/09/09 14:52:07;;;;;;;11.43;7.05;;;;;;;;;;5003934;28;20473;-59
2023/09/09 14:55:02;;;;;;;9.68;6.25;;;;;;;;;;5002688;28;20707;-59
2023/09/09 14:57:49;;;;;;;9.73;7.07;;;;;;;;;;5005569;28;20069;-60
2023/09/09 15:00:42;;;;;;;11.70;7.20;;;;;;;;;;5003170;28;20053;-60
2023/09/09 15:03:29;;;;;;;11.40;6.72;;;;;;;;;;4999992;28;20041;-61
2023/09/09 15:06:23;;;;;;;9.10;6.72;;;;;;;;;;5005296;28;20498;-61
2023/09/09 15:09:11;;;;;;;8.18;6.85;;;;;;;;;;5000281;28;20105;-61
2023/09/09 15:12:04;;;;;;;11.80;6.97;;;;;;;;;;5001388;28;20104;-52
2023/09/09 15:14:52;;;;;;;9.05;7.15;;;;;;;;;;5002329;28;20477;-58
2023/09/09 15:17:46;;;;;;;10.55;7.18;;;;;;;;;;5003659;28;20050;-57
2023/09/09 15:20:16;;;;;;;11.00;7.03;;;;;;;;;;5002111;28;20104;-58
2023/09/09 15:23:09;;;;;;;10.10;6.88;;;;;;;;;;5003694;28;20049;-58
2023/09/09 15:25:57;;;;;;;12.02;7.18;;;;;;;;;;5006067;28;20428;-58
2023/09/09 15:28:50;;;;;;;9.18;7.30;;;;;;;;;;5002591;28;21565;-60
2023/09/09 15:31:37;;;;;;;12.93;6.78;;;;;;;;;;5003443;28;20124;-62
2023/09/09 15:34:31;;;;;;;9.23;7.35;;;;;;;;;;4993167;28;20054;-62
2023/09/09 15:37:19;;;;;;;9.05;7.13;;;;;;;;;;4985911;28;20399;-61
2023/09/09 15:40:12;;;;;;;10.32;7.10;;;;;;;;;;4997047;28;20046;-60
2023/09/09 15:43:00;;;;;;;8.65;6.90;;;;;;;;;;5003863;28;20493;-61
2023/09/09 15:46:00;;;;;;;9.00;7.22;;;;;;;;;;5000504;28;20442;-61
2023/09/09 15:48:47;;;;;;;11.77;7.25;;;;;;;;;;4997697;28;20103;-65
2023/09/09 15:51:42;;;;;;;11.35;7.07;;;;;;;;;;4999150;28;20128;-64
2023/09/09 15:54:29;;;;;;;8.90;7.28;;;;;;;;;;4997635;28;20054;-65
2023/09/09 15:57:23;;;;;;;11.10;7.70;;;;;;;;;;4999661;28;20210;-65
2023/09/09 16:00:11;;;;;;;11.43;7.93;;;;;;;;;;4996327;28;20112;-61
2023/09/09 16:02:51;;;;;;;10.45;7.95;;;;;;;;;;4996876;28;20115;-62
2023/09/09 16:05:45;;;;;;;12.10;7.50;;;;;;;;;;4994471;28;20064;-61
2023/09/09 16:08:40;;;;;;;12.18;7.40;;;;;;;;;;5000803;28;20147;-60
2023/09/09 16:11:33;;;;;;;10.98;7.68;;;;;;;;;;5003215;28;20100;-60
2023/09/09 16:14:21;;;;;;;12.88;6.90;;;;;;;;;;4997396;28;20058;-61
2023/09/09 16:17:14;;;;;;;13.75;8.10;;;;;;;;;;5001629;28;20761;-60
2023/09/09 16:20:02;;;;;;;13.07;8.02;;;;;;;;;;4999091;28;20124;-61
2023/09/09 16:22:55;;;;;;;12.82;8.15;;;;;;;;;;5003558;28;20100;-61
2023/09/09 16:25:45;;;;;;;11.90;7.70;;;;;;;;;;5003072;28;20065;-59
2023/09/09 16:28:39;;;;;;;11.23;7.47;;;;;;;;;;5004933;28;20070;-65
2023/09/09 16:31:26;;;;;;;11.13;7.20;;;;;;;;;;4999310;28;20058;-66
2023/09/09 16:34:22;;;;;;;11.82;7.95;;;;;;;;;;5006032;28;20053;-66
2023/09/09 16:37:08;;;;;;;8.48;7.03;;;;;;;;;;5004225;28;20669;-66
2023/09/09 16:40:01;;;;;;;10.50;7.40;;;;;;;;;;5002772;28;20054;-65
2023/09/09 16:42:49;;;;;;;11.82;7.00;;;;;;;;;;5000804;28;20096;-65
2023/09/09 16:45:42;;;;;;;13.00;7.70;;;;;;;;;;4998059;28;20835;-61
2023/09/09 16:48:09;;;;;;;;;;;;;;;;;;4995694;28;20100;-53
2023/09/09 16:51:10;;;;;;;11.45;7.90;;;;;;;;;;4982793;28;20027;-48